Terminal Aerodrome Forecast
Issued by NWS

Home | Current Version | Previous Version | Text Only | Print | Product List | Glossary On
Versions: 1 2 3 4 5 6 7 8 9 10 11 12 13 14 15 16 17
000
FTUS44 KLZK 181700
TAFPBF
TAF
KPBF 181733Z 1818/1918 35005KT P6SM VCTS SCT040CB BKN120
      TEMPO 1818/1822 VRB15G25KT 3SM TSRA BKN025CB
     FM190000 VRB03KT P6SM SCT120 BKN250
     FM190600 03003KT 4SM BR SCT250
     FM190900 03002KT 1SM BR SCT015
      TEMPO 1909/1912 BKN015
     FM191500 09006KT 6SM BR SCT015 BKN250=

USA.gov is the U.S. government's official web portal to all federal, state and local government web resources and services.